Athinai, Greece

4:41 PM EEST on September 18, 2014 (GMT +0300)
IATTICAI2 | Change Station
CLOSE
Current Station
Personal Weather Station
Location: Ilion, ILION
Elevation: 410 ft
Nearby Weather Stations

Elev 410 ft 38.04 °N, 23.70 °E | Updated 8 seconds ago

Mostly Cloudy
Mostly Cloudy
77.0 °F
Feels Like 79 °F
N
8.1
Wind Variable Wind from East
Gusts 8.1 mph

Today
High -- | Low -- °F
--% Chance of Precip.
Yesterday
High -- | Low -- °F
Precip. -- in
7:09 AM 7:29 PM
Waning Crescent, 27% visible
Pressure 30.01 in
Visibility 6.2 miles
Clouds Few 2500 ft
Scattered Clouds 3500 ft
Mostly Cloudy 7000 ft
Heat Index 79 °F
Dew Point 58 °F
Humidity 52%
Rainfall 0.00 in
Snow Depth Not available.
UV 2 out of 12
Pollen Not available.
Air Quality Not available.
Flu Activity Not available.
METAR LGEL 181320Z 35005KT 9999 FEW025 SCT035 BKN070 26/11 Q1016

More Conditions Fewer Conditions

Pressure 30.01 in
Visibility 6.2 miles
Clouds Few 2500 ft
Scattered Clouds 3500 ft
Mostly Cloudy 7000 ft
Heat Index 79 °F
Dew Point 58 °F
Humidity 52%
Rainfall 0.00 in
Snow Depth Not available.
UV 2 out of 12
Pollen Not available.
Air Quality Not available.
Flu Activity Not available.
METAR LGEL 181320Z 35005KT 9999 FEW025 SCT035 BKN070 26/11 Q1016

More Conditions Fewer Conditions

10-Day Weather Forecast

Almanac

Astronomy

Sep. 18, 2014 Rise Set
Actual Time 7:09 AM EEST 7:29 PM EEST
Civil Twilight 6:43 AM EEST 7:55 PM EEST
Nautical Twilight 6:12 AM EEST 8:26 PM EEST
Astronomical Twilight 5:40 AM EEST 8:57 PM EEST
Moon 1:48 AM EEST 4:04 PM EEST
Length of Visible Light 13h 12m
Length of Day
12h 19m
Tomorrow will be 2m 25s shorter.
Waning Crescent, 27% of the Moon is Illuminated
Today
Waning Crescent
Sep 24
New
Oct 1
First Quarter
Oct 8
Full
Oct 15
Last Quarter

Yesterday's Extremes

Country Highs Country Lows

Community

WunderPhotos

Upload Photos

1,754,347 photos uploaded!

Nearby

Snow Depth

Not available.

Earthquake Activity

City Distance Mag. Time & Date
No recent earthquake activity has been reported nearby.
Minimum magnitude displayed is 2.5.

Coastal Water Temperatures

Place Temperature
No Stations Reporting

Nearby Weather Stations